Black Rock, New Mexico
Current Conditions -  °F | °C
As of 8:53 AM on Friday 31 Oct 2014 (Local Time) from KGUP Reporting Station
Clear Clear  
Wind Chill: 47°   Ceiling: Unl
Heat Index: 47°   Visibility: 10mi
Dew Point: 23°   Wind: 0mph
Humidity: 39%   Direction: NA
Pressure: 30.31"   Gusts: NA
Location:  35.0898°N, 108.763°W
Report Text: KGUP 311453Z AUTO 00000KT 10SM CLR 08/M05 A3031 RMK AO2 SLP207 T00831050 53002
Loading
Personal Weather Stations






























Interactive Weather Map
Tropical Storm Tracking
New forecast layout! Learn more

10-Day Weather Forecast

Advertisements
Track Severe Weather on mobile